createdAt,value
2022-11-14T00:00:59.333Z,5.40
2022-11-14T00:03:26.084Z,5.30
2022-11-14T00:05:52.954Z,5.30
2022-11-14T00:08:23.164Z,5.30
2022-11-14T00:10:51.179Z,5.20
2022-11-14T00:13:19.254Z,5.20
2022-11-14T00:15:50.356Z,5.20
2022-11-14T00:18:17.912Z,5.20
2022-11-14T00:20:48.500Z,5.10
2022-11-14T00:23:15.408Z,5.10
2022-11-14T00:25:43.845Z,5.10
2022-11-14T00:28:10.622Z,4.90
2022-11-14T00:30:37.401Z,4.90
2022-11-14T00:33:04.278Z,4.90
2022-11-14T00:35:31.118Z,4.80
2022-11-14T00:37:57.849Z,4.80
2022-11-14T00:40:24.635Z,4.80
2022-11-14T00:42:51.383Z,4.80
2022-11-14T00:45:18.463Z,4.80
2022-11-14T00:47:45.271Z,4.70
2022-11-14T00:50:12.039Z,4.70
2022-11-14T00:52:38.777Z,4.70
2022-11-14T00:55:06.270Z,4.60
2022-11-14T00:57:33.013Z,4.60
2022-11-14T00:59:59.792Z,4.60
2022-11-14T01:02:26.514Z,4.50
2022-11-14T01:04:53.334Z,4.50
2022-11-14T01:07:20.105Z,4.50
2022-11-14T01:09:46.849Z,4.50
2022-11-14T01:12:13.613Z,4.50
2022-11-14T01:14:41.081Z,4.40
2022-11-14T01:17:08.036Z,4.40
2022-11-14T01:19:35.033Z,4.40
2022-11-14T01:22:06.280Z,4.30
2022-11-14T01:24:33.994Z,4.30
2022-11-14T01:27:01.272Z,4.30
2022-11-14T01:29:28.404Z,4.30
2022-11-14T01:31:55.973Z,4.20
2022-11-14T01:34:23.465Z,4.20
2022-11-14T01:36:50.268Z,4.20
2022-11-14T01:39:17.037Z,4.20
2022-11-14T01:41:44.034Z,4.20
2022-11-14T01:44:37.444Z,4.10
2022-11-14T01:47:04.693Z,4.10
2022-11-14T01:49:38.630Z,4.10
2022-11-14T01:52:06.587Z,4.00
2022-11-14T01:54:36.805Z,4.00
2022-11-14T01:57:05.229Z,4.00
2022-11-14T01:59:35.961Z,4.00
2022-11-14T02:02:07.627Z,4.00
2022-11-14T02:04:44.237Z,4.00
2022-11-14T02:07:12.025Z,3.90
2022-11-14T02:09:40.919Z,3.90
2022-11-14T02:12:09.578Z,3.90
2022-11-14T02:14:37.557Z,3.80
2022-11-14T02:17:28.398Z,3.80
2022-11-14T02:20:12.068Z,3.80
2022-11-14T02:22:40.676Z,3.80
2022-11-14T02:25:09.024Z,3.70
2022-11-14T02:27:36.752Z,3.70
2022-11-14T02:30:06.318Z,3.70
2022-11-14T02:32:56.913Z,3.70
2022-11-14T02:35:20.889Z,3.70
2022-11-14T02:37:47.708Z,3.70
2022-11-14T02:40:14.602Z,3.60
2022-11-14T02:42:41.392Z,3.60
2022-11-14T02:45:09.093Z,3.60
2022-11-14T02:47:35.842Z,3.60
2022-11-14T02:50:02.630Z,3.50
2022-11-14T02:52:29.362Z,3.50
2022-11-14T02:54:56.214Z,3.50
2022-11-14T02:57:22.936Z,3.50
2022-11-14T02:59:49.692Z,3.50
2022-11-14T03:02:16.468Z,3.40
2022-11-14T03:04:43.197Z,3.40
2022-11-14T03:07:09.989Z,3.40
2022-11-14T03:09:36.772Z,3.40
2022-11-14T03:12:03.769Z,3.40
2022-11-14T03:14:31.565Z,3.30
2022-11-14T03:16:58.349Z,3.30
2022-11-14T03:19:25.096Z,3.30
2022-11-14T03:21:51.881Z,3.30
2022-11-14T03:24:18.713Z,3.20
2022-11-14T03:26:45.435Z,3.20
2022-11-14T03:29:12.235Z,3.30
2022-11-14T03:31:38.946Z,3.20
2022-11-14T03:34:05.791Z,3.20
2022-11-14T03:36:34.347Z,3.20
2022-11-14T03:39:01.432Z,3.20
2022-11-14T03:41:28.181Z,3.10
2022-11-14T03:43:55.038Z,3.10
2022-11-14T03:46:21.820Z,3.10
2022-11-14T03:48:48.580Z,3.10
2022-11-14T03:51:15.345Z,3.10
2022-11-14T03:53:42.063Z,3.10
2022-11-14T03:56:08.926Z,3.10
2022-11-14T03:58:35.673Z,3.00
2022-11-14T04:01:03.939Z,3.00
2022-11-14T04:03:30.815Z,3.00
2022-11-14T04:05:57.589Z,3.00
2022-11-14T04:08:24.343Z,3.00
2022-11-14T04:10:51.133Z,2.90
2022-11-14T04:13:17.859Z,2.90
2022-11-14T04:15:44.684Z,2.90
2022-11-14T04:18:11.539Z,2.90
2022-11-14T04:20:38.356Z,2.90
2022-11-14T04:23:05.090Z,2.90
2022-11-14T04:25:31.842Z,2.80
2022-11-14T04:27:58.564Z,2.80
2022-11-14T04:30:25.394Z,2.80
2022-11-14T04:32:52.115Z,2.80
2022-11-14T04:35:18.934Z,2.80
2022-11-14T04:37:46.267Z,2.80
2022-11-14T04:40:13.073Z,2.80
2022-11-14T04:42:39.808Z,2.80
2022-11-14T04:45:07.734Z,2.80
2022-11-14T04:47:34.522Z,2.80
2022-11-14T04:50:01.397Z,2.80
2022-11-14T04:52:28.791Z,2.80
2022-11-14T04:54:55.526Z,2.70
2022-11-14T04:57:22.310Z,2.70
2022-11-14T04:59:49.026Z,2.70
2022-11-14T05:02:15.739Z,2.70
2022-11-14T05:04:44.441Z,2.70
2022-11-14T05:07:11.627Z,2.70
2022-11-14T05:09:38.567Z,2.70
2022-11-14T05:12:05.822Z,2.70
2022-11-14T05:14:32.997Z,2.70
2022-11-14T05:17:00.036Z,2.70
2022-11-14T05:19:27.064Z,2.60
2022-11-14T05:21:53.806Z,2.60
2022-11-14T05:24:20.528Z,2.70
2022-11-14T05:26:47.282Z,2.70
2022-11-14T05:29:14.136Z,2.80
2022-11-14T05:31:40.907Z,2.80
2022-11-14T05:34:07.589Z,3.00
2022-11-14T05:36:34.325Z,3.00
2022-11-14T05:39:00.998Z,2.90
2022-11-14T05:41:27.797Z,2.90
2022-11-14T05:43:54.658Z,2.90
2022-11-14T05:46:21.413Z,2.80
2022-11-14T05:48:48.204Z,2.80
2022-11-14T05:51:14.974Z,2.80
2022-11-14T05:53:42.077Z,2.90
2022-11-14T05:56:11.461Z,3.00
2022-11-14T05:58:38.574Z,2.90
2022-11-14T06:01:18.660Z,2.80
2022-11-14T06:03:46.947Z,2.90
2022-11-14T06:06:19.541Z,2.80
2022-11-14T06:08:46.628Z,2.80
2022-11-14T06:11:18.867Z,2.80
2022-11-14T06:13:46.177Z,2.90
2022-11-14T06:16:15.082Z,2.90
2022-11-14T06:18:42.238Z,2.90
2022-11-14T06:21:17.340Z,2.90
2022-11-14T06:23:44.454Z,2.80
2022-11-14T06:26:25.867Z,2.80
2022-11-14T06:28:53.615Z,2.90
2022-11-14T06:31:20.963Z,3.00
2022-11-14T06:33:47.769Z,2.90
2022-11-14T06:36:14.740Z,2.90
2022-11-14T06:38:42.109Z,2.80
2022-11-14T06:41:15.341Z,2.80
2022-11-14T06:43:44.214Z,2.80
2022-11-14T06:46:15.764Z,2.80
2022-11-14T06:48:43.299Z,2.80
2022-11-14T06:51:11.706Z,2.80
2022-11-14T06:53:38.736Z,2.90
2022-11-14T06:56:08.010Z,3.00
2022-11-14T06:58:39.024Z,2.90
2022-11-14T07:01:06.587Z,3.00
2022-11-14T07:03:33.815Z,3.00
2022-11-14T07:06:01.770Z,2.90
2022-11-14T07:08:28.713Z,2.80
2022-11-14T07:11:01.702Z,2.90
2022-11-14T07:13:28.468Z,2.90
2022-11-14T07:15:55.528Z,2.80
2022-11-14T07:18:22.321Z,2.80
2022-11-14T07:20:49.103Z,2.70
2022-11-14T07:23:21.434Z,2.80
2022-11-14T07:25:49.570Z,2.80
2022-11-14T07:28:16.277Z,2.80
2022-11-14T07:30:43.069Z,2.80
2022-11-14T07:33:10.388Z,2.80
2022-11-14T07:35:40.000Z,2.90
2022-11-14T07:38:06.713Z,2.90
2022-11-14T07:40:33.502Z,2.90
2022-11-14T07:43:00.935Z,2.90
2022-11-14T07:45:28.943Z,2.90
2022-11-14T07:47:59.887Z,3.10
2022-11-14T07:50:27.569Z,3.20
2022-11-14T07:52:55.712Z,3.20
2022-11-14T07:55:22.529Z,3.20
2022-11-14T07:57:53.154Z,3.10
2022-11-14T08:00:20.026Z,3.10
2022-11-14T08:02:47.345Z,3.10
2022-11-14T08:05:14.257Z,3.10
2022-11-14T08:07:41.147Z,3.10
2022-11-14T08:10:08.972Z,3.20
2022-11-14T08:12:35.844Z,3.20
2022-11-14T08:15:02.736Z,3.40
2022-11-14T08:17:29.567Z,3.40
2022-11-14T08:19:56.309Z,3.40
2022-11-14T08:22:23.089Z,3.40
2022-11-14T08:24:49.922Z,3.40
2022-11-14T08:27:16.876Z,3.40
2022-11-14T08:29:43.676Z,3.40
2022-11-14T08:32:10.970Z,3.40
2022-11-14T08:34:37.879Z,3.50
2022-11-14T08:37:04.857Z,3.50
2022-11-14T08:39:31.635Z,3.60
2022-11-14T08:41:58.370Z,3.60
2022-11-14T08:44:25.165Z,3.70
2022-11-14T08:46:51.931Z,3.70
2022-11-14T08:49:18.758Z,3.80
2022-11-14T08:51:45.638Z,3.80
2022-11-14T08:54:12.455Z,3.80
2022-11-14T08:56:39.692Z,3.90
2022-11-14T08:59:06.506Z,3.80
2022-11-14T09:01:33.465Z,3.90
2022-11-14T09:04:00.903Z,4.00
2022-11-14T09:06:27.771Z,3.90
2022-11-14T09:08:54.665Z,4.10
2022-11-14T09:11:21.678Z,4.00
2022-11-14T09:13:48.467Z,4.10
2022-11-14T09:16:15.261Z,4.00
2022-11-14T09:18:42.083Z,4.20
2022-11-14T09:21:09.441Z,4.20
2022-11-14T09:23:36.391Z,4.30
2022-11-14T09:26:07.597Z,4.30
2022-11-14T09:28:34.868Z,4.30
2022-11-14T09:31:10.908Z,4.30
2022-11-14T09:33:37.899Z,4.50
2022-11-14T09:36:07.136Z,4.50
2022-11-14T09:38:38.452Z,4.60
2022-11-14T09:41:08.659Z,4.60
2022-11-14T09:44:20.848Z,4.50
2022-11-14T09:46:57.546Z,4.60
2022-11-14T09:49:33.056Z,4.70
2022-11-14T09:52:27.349Z,4.80
2022-11-14T09:55:04.995Z,4.80
2022-11-14T09:57:31.839Z,5.00
2022-11-14T09:59:58.766Z,5.10
2022-11-14T10:02:33.351Z,5.20
2022-11-14T10:05:19.770Z,5.20
2022-11-14T10:08:05.332Z,5.20
2022-11-14T10:10:45.079Z,5.40
2022-11-14T10:13:11.787Z,5.50
2022-11-14T10:16:06.083Z,5.50
2022-11-14T10:18:41.899Z,5.60
2022-11-14T10:21:17.723Z,5.70
2022-11-14T10:24:00.331Z,5.70
2022-11-14T10:26:31.572Z,5.80
2022-11-14T10:29:22.719Z,5.70
2022-11-14T10:31:53.570Z,5.90
2022-11-14T10:35:19.391Z,6.00
2022-11-14T10:37:48.913Z,6.10
2022-11-14T10:40:19.287Z,6.10
2022-11-14T10:42:51.510Z,6.20
2022-11-14T10:45:18.281Z,6.20
2022-11-14T10:47:50.018Z,6.30
2022-11-14T10:50:22.436Z,6.50
2022-11-14T10:52:49.706Z,6.60
2022-11-14T10:55:18.059Z,6.60
2022-11-14T10:57:48.379Z,6.70
2022-11-14T11:00:17.949Z,6.80
2022-11-14T11:02:53.839Z,6.90
2022-11-14T11:05:23.963Z,6.90
2022-11-14T11:08:36.123Z,7.00
2022-11-14T11:11:17.788Z,7.10
2022-11-14T11:13:58.013Z,7.20
2022-11-14T11:16:26.344Z,7.30
2022-11-14T11:18:53.218Z,7.30
2022-11-14T11:21:22.388Z,7.30
2022-11-14T11:23:54.695Z,7.50
2022-11-14T11:26:28.693Z,7.50
2022-11-14T11:29:08.831Z,7.60
2022-11-14T11:31:58.059Z,7.70
2022-11-14T11:34:31.751Z,7.70
2022-11-14T11:37:16.297Z,7.90
2022-11-14T11:39:46.564Z,8.00
2022-11-14T11:42:19.543Z,8.00
2022-11-14T11:44:48.813Z,8.10
2022-11-14T11:47:17.407Z,8.10
2022-11-14T11:49:53.893Z,8.30
2022-11-14T11:52:33.838Z,8.40
2022-11-14T11:55:09.670Z,8.50
2022-11-14T11:57:40.257Z,8.60
2022-11-14T12:00:15.656Z,8.70
2022-11-14T12:02:50.029Z,8.80
2022-11-14T12:05:20.524Z,8.80
2022-11-14T12:08:30.861Z,8.90
2022-11-14T12:10:58.390Z,9.10
2022-11-14T12:13:43.536Z,9.20
2022-11-14T12:16:47.113Z,9.30
2022-11-14T12:19:26.183Z,9.40
2022-11-14T12:21:59.193Z,9.50
2022-11-14T12:24:41.326Z,9.60
2022-11-14T12:27:34.609Z,9.70
2022-11-14T12:30:10.645Z,9.90
2022-11-14T12:32:41.631Z,10.00
2022-11-14T12:35:17.368Z,10.10
2022-11-14T12:37:45.478Z,10.20
2022-11-14T12:40:26.688Z,10.30
2022-11-14T12:42:53.449Z,10.40
2022-11-14T12:45:43.686Z,10.50
2022-11-14T12:48:25.557Z,10.50
2022-11-14T12:50:56.895Z,10.70
2022-11-14T12:53:38.572Z,10.70
2022-11-14T12:56:14.420Z,10.80
2022-11-14T12:58:59.464Z,10.90
2022-11-14T13:01:51.563Z,11.00
2022-11-14T13:04:43.005Z,11.10
2022-11-14T13:07:37.859Z,11.10
2022-11-14T13:10:30.539Z,11.20
2022-11-14T13:13:25.563Z,11.30
2022-11-14T13:16:12.893Z,11.50
2022-11-14T13:19:20.356Z,11.50
2022-11-14T13:22:12.049Z,11.40
2022-11-14T13:25:03.951Z,11.60
2022-11-14T13:28:05.756Z,11.60
2022-11-14T13:31:01.206Z,11.60
2022-11-14T13:33:44.687Z,11.60
2022-11-14T13:36:22.434Z,11.20
2022-11-14T13:39:12.246Z,11.10
2022-11-14T13:41:58.042Z,11.20
2022-11-14T13:44:38.679Z,10.90
2022-11-14T13:47:30.278Z,10.80
2022-11-14T13:50:17.887Z,10.80
2022-11-14T13:52:48.754Z,10.80
2022-11-14T13:55:21.926Z,10.90
2022-11-14T13:57:54.574Z,10.80
2022-11-14T14:00:21.511Z,10.80
2022-11-14T14:03:19.470Z,10.80
2022-11-14T14:06:02.605Z,10.70
2022-11-14T14:08:52.131Z,10.80
2022-11-14T14:11:43.073Z,10.50
2022-11-14T14:14:41.508Z,10.40
2022-11-14T14:17:24.907Z,10.60
2022-11-14T14:20:10.725Z,10.50
2022-11-14T14:22:46.035Z,10.50
2022-11-14T14:25:12.847Z,10.50
2022-11-14T14:27:45.665Z,10.40
2022-11-14T14:30:15.078Z,10.20
2022-11-14T14:32:41.921Z,10.40
2022-11-14T14:35:29.679Z,10.30
2022-11-14T14:37:57.554Z,10.20
2022-11-14T14:40:31.493Z,10.10
2022-11-14T14:42:58.827Z,10.00
2022-11-14T14:45:27.604Z,9.90
2022-11-14T14:48:15.483Z,10.00
2022-11-14T14:50:48.647Z,10.10
2022-11-14T14:53:35.371Z,9.80
2022-11-14T14:56:04.618Z,9.70
2022-11-14T14:58:35.206Z,9.60
2022-11-14T15:01:08.964Z,9.50
2022-11-14T15:03:43.279Z,9.50
2022-11-14T15:06:32.515Z,9.40
2022-11-14T15:09:09.805Z,9.50
2022-11-14T15:11:40.423Z,9.60
2022-11-14T15:14:13.665Z,9.50
2022-11-14T15:16:41.119Z,9.50
2022-11-14T15:19:12.947Z,9.40
2022-11-14T15:21:39.739Z,9.40
2022-11-14T15:24:19.729Z,9.20
2022-11-14T15:26:49.780Z,9.30
2022-11-14T15:29:21.550Z,9.40
2022-11-14T15:31:49.528Z,9.20
2022-11-14T15:34:35.565Z,9.20
2022-11-14T15:37:14.418Z,9.20
2022-11-14T15:39:42.019Z,9.00
2022-11-14T15:42:19.341Z,9.10
2022-11-14T15:44:47.065Z,9.10
2022-11-14T15:47:20.872Z,9.10
2022-11-14T15:50:00.859Z,8.90
2022-11-14T15:52:36.861Z,8.80
2022-11-14T15:55:04.037Z,8.80
2022-11-14T15:57:32.062Z,8.80
2022-11-14T15:59:58.821Z,8.70
2022-11-14T16:02:31.099Z,8.70
2022-11-14T16:04:59.001Z,8.70
2022-11-14T16:07:26.016Z,8.70
2022-11-14T16:09:53.166Z,8.70
2022-11-14T16:12:19.979Z,8.70
2022-11-14T16:14:46.792Z,8.70
2022-11-14T16:17:15.374Z,8.60
2022-11-14T16:19:42.519Z,8.60
2022-11-14T16:22:16.160Z,8.50
2022-11-14T16:24:42.938Z,8.60
2022-11-14T16:27:09.842Z,8.50
2022-11-14T16:29:36.616Z,8.50
2022-11-14T16:32:03.749Z,8.50
2022-11-14T16:34:30.579Z,8.40
2022-11-14T16:37:00.076Z,8.40
2022-11-14T16:39:27.254Z,8.30
2022-11-14T16:41:59.962Z,8.40
2022-11-14T16:44:26.708Z,8.30
2022-11-14T16:46:53.594Z,8.30
2022-11-14T16:49:20.473Z,8.30
2022-11-14T16:51:50.352Z,8.20
2022-11-14T16:54:20.690Z,8.20
2022-11-14T16:56:47.944Z,8.20
2022-11-14T16:59:14.687Z,8.20
2022-11-14T17:01:41.813Z,8.10
2022-11-14T17:04:08.750Z,8.10
2022-11-14T17:06:35.525Z,8.10
2022-11-14T17:09:02.494Z,8.10
2022-11-14T17:11:29.451Z,8.10
2022-11-14T17:13:56.817Z,8.10
2022-11-14T17:16:23.894Z,8.00
2022-11-14T17:18:54.783Z,8.00
2022-11-14T17:21:22.599Z,8.00
2022-11-14T17:23:56.893Z,8.00
2022-11-14T17:26:24.013Z,7.90
2022-11-14T17:28:50.865Z,7.90
2022-11-14T17:31:18.047Z,8.00
2022-11-14T17:33:51.281Z,7.90
2022-11-14T17:36:18.151Z,7.90
2022-11-14T17:38:44.938Z,7.90
2022-11-14T17:41:11.658Z,7.90
2022-11-14T17:43:39.853Z,7.90
2022-11-14T17:46:12.565Z,7.90
2022-11-14T17:48:42.702Z,7.90
2022-11-14T17:51:12.275Z,7.80
2022-11-14T17:53:39.628Z,7.80
2022-11-14T17:56:07.783Z,7.80
2022-11-14T17:58:35.130Z,7.80
2022-11-14T18:01:02.595Z,7.80
2022-11-14T18:03:29.422Z,7.80
2022-11-14T18:06:07.324Z,7.70
2022-11-14T18:08:34.683Z,7.80
2022-11-14T18:11:02.781Z,7.70
2022-11-14T18:13:29.747Z,7.70
2022-11-14T18:16:04.039Z,7.70
2022-11-14T18:18:35.044Z,7.60
2022-11-14T18:21:09.522Z,7.60
2022-11-14T18:23:36.470Z,7.60
2022-11-14T18:26:16.227Z,7.60
2022-11-14T18:28:43.222Z,7.60
2022-11-14T18:31:11.349Z,7.70
2022-11-14T18:33:39.067Z,7.60
2022-11-14T18:36:11.845Z,7.60
2022-11-14T18:38:39.074Z,7.60
2022-11-14T18:41:16.216Z,7.60
2022-11-14T18:43:44.492Z,7.60
2022-11-14T18:46:16.641Z,7.60
2022-11-14T18:48:45.966Z,7.60
2022-11-14T18:51:20.791Z,7.60
2022-11-14T18:53:47.739Z,7.60
2022-11-14T18:56:16.836Z,7.60
2022-11-14T18:58:44.454Z,7.60
2022-11-14T19:01:24.985Z,7.50
2022-11-14T19:03:53.137Z,7.60
2022-11-14T19:06:19.959Z,7.60
2022-11-14T19:08:46.837Z,7.60
2022-11-14T19:11:34.813Z,7.60
2022-11-14T19:14:02.980Z,7.50
2022-11-14T19:16:31.217Z,7.60
2022-11-14T19:18:58.793Z,7.60
2022-11-14T19:21:26.136Z,7.50
2022-11-14T19:23:55.746Z,7.60
2022-11-14T19:26:23.334Z,7.50
2022-11-14T19:28:50.197Z,7.50
2022-11-14T19:31:17.415Z,7.50
2022-11-14T19:33:45.361Z,7.50
2022-11-14T19:36:32.374Z,7.50
2022-11-14T19:39:04.427Z,7.60
2022-11-14T19:41:31.366Z,7.50
2022-11-14T19:43:59.546Z,7.50
2022-11-14T19:46:28.758Z,7.50
2022-11-14T19:49:00.272Z,7.50
2022-11-14T19:51:28.373Z,7.60
2022-11-14T19:53:56.308Z,7.60
2022-11-14T19:56:23.760Z,7.60
2022-11-14T19:58:51.977Z,7.60
2022-11-14T20:01:23.947Z,7.60
2022-11-14T20:03:55.838Z,7.60
2022-11-14T20:06:30.903Z,7.60
2022-11-14T20:08:58.639Z,7.60
2022-11-14T20:11:27.610Z,7.60
2022-11-14T20:13:55.977Z,7.60
2022-11-14T20:16:26.348Z,7.60
2022-11-14T20:18:58.543Z,7.60
2022-11-14T20:21:27.322Z,7.60
2022-11-14T20:23:54.313Z,7.60
2022-11-14T20:26:21.730Z,7.60
2022-11-14T20:28:50.797Z,7.60
2022-11-14T20:31:24.024Z,7.60
2022-11-14T20:33:54.616Z,7.60
2022-11-14T20:36:24.140Z,7.60
2022-11-14T20:38:52.050Z,7.60
2022-11-14T20:41:19.660Z,7.60
2022-11-14T20:43:46.673Z,7.60
2022-11-14T20:46:15.801Z,7.60
2022-11-14T20:48:43.171Z,7.60
2022-11-14T20:51:16.026Z,7.60
2022-11-14T20:53:43.315Z,7.60
2022-11-14T20:56:11.217Z,7.60
2022-11-14T20:58:43.173Z,7.60
2022-11-14T21:01:10.491Z,7.60
2022-11-14T21:03:37.855Z,7.60
2022-11-14T21:06:07.257Z,7.60
2022-11-14T21:08:36.340Z,7.60
2022-11-14T21:11:06.178Z,7.60
2022-11-14T21:13:56.265Z,7.60
2022-11-14T21:16:41.228Z,7.70
2022-11-14T21:19:08.328Z,7.60
2022-11-14T21:21:37.542Z,7.60
2022-11-14T21:24:05.096Z,7.70
2022-11-14T21:26:34.742Z,7.70
2022-11-14T21:29:12.510Z,7.70
2022-11-14T21:31:44.775Z,7.70
2022-11-14T21:34:14.039Z,7.70
2022-11-14T21:36:45.909Z,7.70
2022-11-14T21:39:15.212Z,7.70
2022-11-14T21:41:43.229Z,7.70
2022-11-14T21:44:14.660Z,7.70
2022-11-14T21:46:41.699Z,7.70
2022-11-14T21:49:09.147Z,7.70
2022-11-14T21:51:36.453Z,7.70
2022-11-14T21:54:03.823Z,7.80
2022-11-14T21:56:32.956Z,7.80
2022-11-14T21:59:13.189Z,7.80
2022-11-14T22:02:06.820Z,7.80
2022-11-14T22:04:34.182Z,7.80
2022-11-14T22:07:06.097Z,7.80
2022-11-14T22:09:33.316Z,7.80
2022-11-14T22:12:00.674Z,7.90
2022-11-14T22:14:27.518Z,7.80
2022-11-14T22:16:54.293Z,7.90
2022-11-14T22:19:21.644Z,7.90
2022-11-14T22:21:48.445Z,7.90
2022-11-14T22:24:15.252Z,7.90
2022-11-14T22:26:42.011Z,7.90
2022-11-14T22:29:09.143Z,8.00
2022-11-14T22:31:37.060Z,8.00
2022-11-14T22:34:04.327Z,8.00
2022-11-14T22:36:31.367Z,8.00
2022-11-14T22:38:58.183Z,8.00
2022-11-14T22:41:31.890Z,8.00
2022-11-14T22:44:00.222Z,8.00
2022-11-14T22:46:29.872Z,8.00
2022-11-14T22:48:56.849Z,8.00
2022-11-14T22:51:26.375Z,8.00
2022-11-14T22:53:57.551Z,8.00
2022-11-14T22:56:27.002Z,8.10
2022-11-14T22:58:53.867Z,8.10
2022-11-14T23:01:20.647Z,8.10
2022-11-14T23:03:48.204Z,8.10
2022-11-14T23:06:17.271Z,8.10
2022-11-14T23:08:44.391Z,8.10
2022-11-14T23:11:17.290Z,8.20
2022-11-14T23:13:46.653Z,8.20
2022-11-14T23:16:16.118Z,8.30
2022-11-14T23:18:43.051Z,8.30
2022-11-14T23:21:24.767Z,8.30
2022-11-14T23:23:55.824Z,8.30
2022-11-14T23:26:23.346Z,8.40
2022-11-14T23:28:50.285Z,8.40
2022-11-14T23:31:19.363Z,8.40
2022-11-14T23:33:47.329Z,8.40
2022-11-14T23:36:14.619Z,8.50
2022-11-14T23:38:41.984Z,8.50
2022-11-14T23:41:15.573Z,8.50
2022-11-14T23:43:42.508Z,8.60
2022-11-14T23:46:10.357Z,8.60
2022-11-14T23:48:37.128Z,8.60
2022-11-14T23:51:04.242Z,8.60
2022-11-14T23:53:31.427Z,8.80
2022-11-14T23:56:00.586Z,8.80
2022-11-14T23:58:28.839Z,8.80
